createdAt,value
2018-04-06T00:00:02.838Z,4.83
2018-04-06T00:02:31.882Z,4.87
2018-04-06T00:05:00.923Z,4.80
2018-04-06T00:07:29.992Z,5.17
2018-04-06T00:09:59.025Z,5.40
2018-04-06T00:12:28.081Z,5.50
2018-04-06T00:14:57.138Z,5.03
2018-04-06T00:17:26.186Z,5.33
2018-04-06T00:19:55.246Z,4.77
2018-04-06T00:22:24.281Z,4.60
2018-04-06T00:24:53.358Z,4.77
2018-04-06T00:27:22.393Z,4.93
2018-04-06T00:29:52.222Z,4.50
2018-04-06T00:32:21.266Z,4.20
2018-04-06T00:34:50.325Z,4.23
2018-04-06T00:37:19.402Z,4.27
2018-04-06T00:39:48.455Z,4.80
2018-04-06T00:42:17.474Z,3.83
2018-04-06T00:44:47.302Z,4.00
2018-04-06T00:47:16.372Z,3.60
2018-04-06T00:49:45.435Z,3.40
2018-04-06T00:52:14.468Z,3.20
2018-04-06T00:54:44.314Z,3.67
2018-04-06T00:57:13.342Z,4.07
2018-04-06T00:59:42.406Z,3.40
2018-04-06T01:02:11.465Z,3.27
2018-04-06T01:04:40.507Z,3.93
2018-04-06T01:07:11.210Z,4.00
2018-04-06T01:09:40.265Z,3.90
2018-04-06T01:12:09.344Z,3.70
2018-04-06T01:14:38.360Z,3.50
2018-04-06T01:17:07.418Z,4.03
2018-04-06T01:19:36.454Z,4.30
2018-04-06T01:22:06.282Z,4.20
2018-04-06T01:24:35.327Z,4.27
2018-04-06T01:27:04.388Z,4.70
2018-04-06T01:29:33.458Z,3.83
2018-04-06T01:32:03.261Z,4.30
2018-04-06T01:34:33.091Z,4.57
2018-04-06T01:37:02.888Z,4.63
2018-04-06T01:39:32.722Z,5.50
2018-04-06T01:42:01.758Z,5.60
2018-04-06T01:44:30.833Z,5.87
2018-04-06T01:46:59.873Z,5.40
2018-04-06T01:49:28.929Z,5.47
2018-04-06T01:51:57.974Z,6.03
2018-04-06T01:54:27.799Z,6.20
2018-04-06T01:56:56.862Z,5.60
2018-04-06T01:59:25.902Z,6.20
2018-04-06T02:01:54.963Z,6.07
2018-04-06T02:04:24.781Z,5.33
2018-04-06T02:06:54.622Z,4.93
2018-04-06T02:09:23.687Z,5.70
2018-04-06T02:11:53.505Z,5.87
2018-04-06T02:14:22.569Z,5.40
2018-04-06T02:16:51.625Z,5.80
2018-04-06T02:19:20.660Z,7.00
2018-04-06T02:21:49.736Z,6.87
2018-04-06T02:24:18.775Z,6.77
2018-04-06T02:26:47.846Z,6.70
2018-04-06T02:29:16.918Z,7.23
2018-04-06T02:31:45.958Z,6.90
2018-04-06T02:34:15.788Z,6.70
2018-04-06T02:36:44.833Z,7.83
2018-04-06T02:39:13.887Z,7.10
2018-04-06T02:41:42.924Z,7.07
2018-04-06T02:44:11.992Z,7.97
2018-04-06T02:46:41.068Z,7.20
2018-04-06T02:49:10.926Z,6.03
2018-04-06T02:51:39.940Z,7.20
2018-04-06T02:54:08.963Z,6.67
2018-04-06T02:56:38.027Z,5.60
2018-04-06T02:59:07.861Z,5.47
2018-04-06T03:01:36.929Z,5.43
2018-04-06T03:04:05.958Z,5.10
2018-04-06T03:06:35.059Z,5.00
2018-04-06T03:09:04.839Z,5.43
2018-04-06T03:11:33.917Z,5.40
2018-04-06T03:14:02.980Z,5.43
2018-04-06T03:16:32.015Z,5.77
2018-04-06T03:19:01.845Z,5.80
2018-04-06T03:21:31.646Z,4.93
2018-04-06T03:24:01.476Z,6.03
2018-04-06T03:26:30.550Z,6.33
2018-04-06T03:29:00.364Z,6.20
2018-04-06T03:31:30.192Z,7.10
2018-04-06T03:33:59.990Z,6.10
2018-04-06T03:36:29.834Z,6.70
2018-04-06T03:38:58.905Z,7.10
2018-04-06T03:41:27.934Z,6.67
2018-04-06T03:43:57.012Z,7.70
2018-04-06T03:46:26.058Z,7.60
2018-04-06T03:48:55.127Z,7.23
2018-04-06T03:51:24.225Z,7.70
2018-04-06T03:53:53.264Z,8.27
2018-04-06T03:56:22.331Z,8.10
2018-04-06T03:58:51.372Z,8.40
2018-04-06T04:01:20.435Z,8.57
2018-04-06T04:03:49.475Z,12.90
2018-04-06T04:06:18.552Z,9.27
2018-04-06T04:08:47.611Z,9.37
2018-04-06T04:11:16.689Z,9.10
2018-04-06T04:13:45.725Z,12.87
2018-04-06T04:16:14.808Z,10.10
2018-04-06T04:18:44.672Z,15.37
2018-04-06T04:21:13.728Z,19.40
2018-04-06T04:23:43.555Z,8.90
2018-04-06T04:26:12.626Z,15.10
2018-04-06T04:28:42.449Z,15.67
2018-04-06T04:31:11.516Z,8.67
2018-04-06T04:33:40.551Z,8.20
2018-04-06T04:36:09.627Z,8.30
2018-04-06T04:38:39.449Z,7.70
2018-04-06T04:41:08.516Z,8.30
2018-04-06T04:43:37.542Z,8.27
2018-04-06T04:46:06.903Z,7.90
2018-04-06T04:48:35.984Z,8.60
2018-04-06T04:51:05.054Z,8.93
2018-04-06T04:53:34.127Z,8.60
2018-04-06T04:56:03.192Z,9.23
2018-04-06T04:58:32.993Z,8.80
2018-04-06T05:01:02.059Z,9.63
2018-04-06T05:03:31.140Z,10.30
2018-04-06T05:06:00.184Z,10.83
2018-04-06T05:08:30.031Z,10.47
2018-04-06T05:10:59.079Z,9.73
2018-04-06T05:13:28.133Z,8.70
2018-04-06T05:15:57.183Z,9.30
2018-04-06T05:18:26.258Z,9.77
2018-04-06T05:20:55.325Z,12.03
2018-04-06T05:23:24.417Z,13.10
2018-04-06T05:25:53.499Z,12.40
2018-04-06T05:28:22.547Z,10.97
2018-04-06T05:30:51.623Z,9.53
2018-04-06T05:33:20.676Z,10.00
2018-04-06T05:35:49.709Z,9.87
2018-04-06T05:38:18.782Z,10.77
2018-04-06T05:40:47.832Z,11.30
2018-04-06T05:43:16.946Z,10.03
2018-04-06T05:45:46.008Z,19.17
2018-04-06T05:48:15.094Z,12.90
2018-04-06T05:50:44.203Z,11.60
2018-04-06T05:53:13.251Z,10.40
2018-04-06T05:55:42.293Z,10.00
2018-04-06T05:58:12.136Z,10.47
2018-04-06T06:00:41.190Z,9.90
2018-04-06T06:03:10.278Z,20.43
2018-04-06T06:05:39.323Z,10.40
2018-04-06T06:08:08.414Z,10.13
2018-04-06T06:10:37.518Z,9.83
2018-04-06T06:13:06.582Z,9.77
2018-04-06T06:15:35.647Z,9.93
2018-04-06T06:18:04.693Z,9.70
2018-04-06T06:20:33.776Z,10.50
2018-04-06T06:23:02.827Z,9.90
2018-04-06T06:25:31.867Z,10.03
2018-04-06T06:28:00.991Z,10.37
2018-04-06T06:30:30.045Z,10.40
2018-04-06T06:32:59.912Z,10.27
2018-04-06T06:35:28.983Z,10.70
2018-04-06T06:37:58.046Z,9.70
2018-04-06T06:40:27.110Z,9.87
2018-04-06T06:42:56.202Z,14.20
2018-04-06T06:45:25.254Z,11.80
2018-04-06T06:47:54.307Z,10.80
2018-04-06T06:50:23.496Z,11.30
2018-04-06T06:52:52.524Z,10.80
2018-04-06T06:55:22.375Z,10.83
2018-04-06T06:57:51.416Z,11.80
2018-04-06T07:00:20.707Z,11.20
2018-04-06T07:02:49.769Z,10.27
2018-04-06T07:05:18.834Z,10.60
2018-04-06T07:07:47.878Z,10.47
2018-04-06T07:10:16.958Z,11.40
2018-04-06T07:12:46.011Z,10.53
2018-04-06T07:15:15.097Z,11.13
2018-04-06T07:17:44.138Z,12.67
2018-04-06T07:20:13.222Z,12.47
2018-04-06T07:22:42.276Z,12.20
2018-04-06T07:25:12.127Z,14.90
2018-04-06T07:27:41.246Z,13.70
2018-04-06T07:30:10.284Z,12.57
2018-04-06T07:32:39.369Z,11.70
2018-04-06T07:35:08.413Z,13.07
2018-04-06T07:37:37.492Z,12.40
2018-04-06T07:40:06.546Z,12.47
2018-04-06T07:42:36.024Z,12.90
2018-04-06T07:45:05.240Z,13.13
2018-04-06T07:47:34.365Z,12.17
2018-04-06T07:50:03.400Z,12.33
2018-04-06T07:52:32.460Z,12.00
2018-04-06T07:55:01.510Z,12.60
2018-04-06T07:57:30.907Z,13.37
2018-04-06T07:59:59.983Z,11.63
2018-04-06T08:02:29.099Z,12.50
2018-04-06T08:04:58.136Z,13.00
2018-04-06T08:07:27.174Z,11.93
2018-04-06T08:09:56.290Z,13.00
2018-04-06T08:12:25.340Z,12.87
2018-04-06T08:14:54.388Z,11.67
2018-04-06T08:17:24.252Z,12.40
2018-04-06T08:19:53.367Z,12.40
2018-04-06T08:22:22.416Z,13.70
2018-04-06T08:24:51.492Z,13.63
2018-04-06T08:27:21.322Z,13.20
2018-04-06T08:29:51.114Z,11.70
2018-04-06T08:32:20.179Z,12.07
2018-04-06T08:34:49.237Z,12.20
2018-04-06T08:37:18.272Z,13.07
2018-04-06T08:39:47.335Z,11.50
2018-04-06T08:42:16.396Z,12.30
2018-04-06T08:44:46.210Z,11.03
2018-04-06T08:47:16.074Z,10.60
2018-04-06T08:49:45.125Z,11.30
2018-04-06T08:52:14.180Z,11.20
2018-04-06T08:54:43.289Z,11.47
2018-04-06T08:57:12.298Z,9.60
2018-04-06T08:59:42.121Z,13.10
2018-04-06T09:02:11.211Z,11.23
2018-04-06T09:04:40.263Z,10.83
2018-04-06T09:07:09.380Z,11.40
2018-04-06T09:09:38.397Z,11.03
2018-04-06T09:12:07.454Z,11.57
2018-04-06T09:14:36.539Z,10.23
2018-04-06T09:17:05.599Z,10.87
2018-04-06T09:19:34.674Z,11.10
2018-04-06T09:22:03.771Z,15.97
2018-04-06T09:24:32.866Z,15.40
2018-04-06T09:27:01.920Z,11.03
2018-04-06T09:29:31.017Z,11.17
2018-04-06T09:32:00.045Z,11.03
2018-04-06T09:34:29.142Z,10.90
2018-04-06T09:36:58.164Z,10.30
2018-04-06T09:39:27.217Z,10.17
2018-04-06T09:41:56.298Z,11.60
2018-04-06T09:44:26.166Z,12.30
2018-04-06T09:46:55.224Z,12.57
2018-04-06T09:49:25.027Z,11.30
2018-04-06T09:51:54.990Z,11.23
2018-04-06T09:54:24.104Z,11.60
2018-04-06T09:56:53.143Z,10.83
2018-04-06T09:59:22.226Z,10.73
2018-04-06T10:02:01.950Z,11.60
2018-04-06T10:04:31.425Z,10.20
2018-04-06T10:07:00.462Z,9.63
2018-04-06T10:09:29.501Z,10.80
2018-04-06T10:11:58.608Z,10.23
2018-04-06T10:14:27.671Z,10.73
2018-04-06T10:16:56.708Z,9.43
2018-04-06T10:19:25.817Z,10.37
2018-04-06T10:21:54.956Z,10.43
2018-04-06T10:24:24.745Z,10.87
2018-04-06T10:26:54.611Z,11.00
2018-04-06T10:29:23.649Z,9.47
2018-04-06T10:31:52.677Z,9.40
2018-04-06T10:34:21.939Z,9.70
2018-04-06T10:36:50.981Z,8.57
2018-04-06T10:39:20.042Z,9.50
2018-04-06T10:41:49.961Z,9.50
2018-04-06T10:44:19.773Z,8.87
2018-04-06T10:46:49.618Z,7.80
2018-04-06T10:49:18.636Z,8.93
2018-04-06T10:51:47.688Z,8.30
2018-04-06T10:54:17.530Z,9.37
2018-04-06T10:56:46.562Z,8.40
2018-04-06T10:59:15.618Z,9.80
2018-04-06T11:01:44.704Z,8.43
2018-04-06T11:04:13.734Z,8.60
2018-04-06T11:06:42.958Z,8.17
2018-04-06T11:09:12.838Z,8.27
2018-04-06T11:11:41.860Z,8.53
2018-04-06T11:14:10.899Z,8.40
2018-04-06T11:16:39.994Z,8.50
2018-04-06T11:19:09.028Z,7.60
2018-04-06T11:21:38.066Z,7.00
2018-04-06T11:24:07.156Z,7.77
2018-04-06T11:26:36.196Z,8.73
2018-04-06T11:29:05.221Z,7.90
2018-04-06T11:31:35.072Z,8.30
2018-04-06T11:34:04.109Z,8.37
2018-04-06T11:36:33.142Z,7.50
2018-04-06T11:39:02.231Z,8.00
2018-04-06T11:41:31.270Z,8.40
2018-04-06T11:44:00.299Z,7.90
2018-04-06T11:46:30.253Z,7.67
2018-04-06T11:48:59.299Z,7.40
2018-04-06T11:51:28.341Z,7.50
2018-04-06T11:53:57.406Z,7.57
2018-04-06T11:56:27.209Z,8.70
2018-04-06T11:58:57.026Z,7.43
2018-04-06T12:01:26.067Z,7.90
2018-04-06T12:03:55.133Z,7.27
2018-04-06T12:06:24.290Z,7.17
2018-04-06T12:08:53.347Z,8.53
2018-04-06T12:11:22.427Z,7.37
2018-04-06T12:13:51.490Z,6.80
2018-04-06T12:16:21.295Z,7.67
2018-04-06T12:18:50.343Z,6.80
2018-04-06T12:21:19.401Z,6.87
2018-04-06T12:23:49.216Z,7.77
2018-04-06T12:26:19.022Z,7.33
2018-04-06T12:28:48.839Z,6.63
2018-04-06T12:31:17.873Z,8.20
2018-04-06T12:33:47.762Z,7.87
2018-04-06T12:36:16.837Z,7.27
2018-04-06T12:38:46.684Z,7.70
2018-04-06T12:41:15.821Z,6.80
2018-04-06T12:43:44.878Z,6.77
2018-04-06T12:46:14.028Z,6.70
2018-04-06T12:48:43.244Z,7.33
2018-04-06T12:51:13.084Z,7.63
2018-04-06T12:53:42.130Z,6.83
2018-04-06T12:56:11.968Z,7.70
2018-04-06T12:58:41.016Z,6.73
2018-04-06T13:01:10.102Z,8.87
2018-04-06T13:03:39.254Z,7.60
2018-04-06T13:06:09.044Z,7.40
2018-04-06T13:08:38.856Z,8.10
2018-04-06T13:11:08.087Z,7.47
2018-04-06T13:13:37.121Z,7.27
2018-04-06T13:16:06.177Z,8.10
2018-04-06T13:18:35.314Z,8.57
2018-04-06T13:21:04.374Z,8.40
2018-04-06T13:23:33.408Z,8.33
2018-04-06T13:26:02.496Z,7.13
2018-04-06T13:28:31.553Z,8.30
2018-04-06T13:31:00.666Z,7.97
2018-04-06T13:33:29.768Z,7.50
2018-04-06T13:35:58.815Z,7.10
2018-04-06T13:38:27.912Z,7.57
2018-04-06T13:40:57.744Z,7.27
2018-04-06T13:43:26.782Z,7.77
2018-04-06T13:45:55.906Z,6.97
2018-04-06T13:48:24.962Z,7.37
2018-04-06T13:50:54.002Z,7.40
2018-04-06T13:53:23.048Z,7.03
2018-04-06T13:55:52.137Z,7.57
2018-04-06T13:58:21.187Z,7.27
2018-04-06T14:00:50.629Z,6.80
2018-04-06T14:03:20.545Z,6.97
2018-04-06T14:05:49.564Z,7.50
2018-04-06T14:08:19.460Z,6.70
2018-04-06T14:10:48.621Z,7.00
2018-04-06T14:13:17.890Z,7.23
2018-04-06T14:15:47.695Z,5.83
2018-04-06T14:18:17.514Z,7.00
2018-04-06T14:20:47.328Z,7.27
2018-04-06T14:23:17.212Z,7.03
2018-04-06T14:25:47.044Z,6.40
2018-04-06T14:28:16.152Z,6.93
2018-04-06T14:30:45.248Z,6.90
2018-04-06T14:33:14.438Z,6.97
2018-04-06T14:35:43.462Z,7.63
2018-04-06T14:38:12.519Z,7.60
2018-04-06T14:40:41.651Z,7.17
2018-04-06T14:43:10.707Z,7.20
2018-04-06T14:45:39.753Z,7.37
2018-04-06T14:48:08.842Z,7.47
2018-04-06T14:50:37.903Z,7.77
2018-04-06T14:53:07.782Z,8.50
2018-04-06T14:55:36.899Z,6.50
2018-04-06T14:58:05.938Z,7.60
2018-04-06T15:00:35.034Z,7.53
2018-04-06T15:03:04.240Z,7.07
2018-04-06T15:05:33.391Z,7.27
2018-04-06T15:08:02.446Z,7.07
2018-04-06T15:10:31.575Z,7.63
2018-04-06T15:13:00.685Z,7.30
2018-04-06T15:15:29.813Z,7.87
2018-04-06T15:17:59.020Z,7.70
2018-04-06T15:20:28.158Z,7.63
2018-04-06T15:22:57.252Z,7.80
2018-04-06T15:25:26.531Z,8.53
2018-04-06T15:27:55.675Z,8.30
2018-04-06T15:30:24.847Z,7.80
2018-04-06T15:32:54.216Z,8.40
2018-04-06T15:35:23.525Z,8.40
2018-04-06T15:37:52.858Z,9.77
2018-04-06T15:40:22.181Z,10.07
2018-04-06T15:42:52.286Z,7.50
2018-04-06T15:45:21.624Z,7.63
2018-04-06T15:47:50.985Z,8.47
2018-04-06T15:50:20.278Z,8.87
2018-04-06T15:52:49.580Z,8.97
2018-04-06T15:55:18.935Z,8.90
2018-04-06T15:57:48.240Z,7.67
2018-04-06T16:00:17.551Z,8.80
2018-04-06T16:02:46.923Z,8.83
2018-04-06T16:05:16.308Z,9.17
2018-04-06T16:07:46.622Z,9.03
2018-04-06T16:10:16.038Z,8.93
2018-04-06T16:12:45.368Z,9.20
2018-04-06T16:15:14.712Z,11.90
2018-04-06T16:17:44.209Z,13.13
2018-04-06T16:20:13.499Z,10.10
2018-04-06T16:22:42.811Z,9.60
2018-04-06T16:25:12.107Z,9.60
2018-04-06T16:27:41.413Z,10.40
2018-04-06T16:30:10.742Z,9.83
2018-04-06T16:32:40.873Z,9.93
2018-04-06T16:35:10.256Z,10.90
2018-04-06T16:37:40.327Z,10.00
2018-04-06T16:40:09.635Z,10.03
2018-04-06T16:42:38.971Z,9.97
2018-04-06T16:45:08.297Z,10.83
2018-04-06T16:47:37.608Z,9.80
2018-04-06T16:50:06.925Z,10.63
2018-04-06T16:52:40.111Z,10.50
2018-04-06T16:55:10.275Z,10.43
2018-04-06T16:57:44.363Z,11.03
2018-04-06T17:00:13.694Z,11.33
2018-04-06T17:02:44.405Z,14.80
2018-04-06T17:05:13.798Z,14.23
2018-04-06T17:07:43.142Z,12.23
2018-04-06T17:10:13.369Z,11.40
2018-04-06T17:12:43.507Z,11.23
2018-04-06T17:15:12.850Z,12.40
2018-04-06T17:17:42.188Z,12.33
2018-04-06T17:20:12.332Z,10.93
2018-04-06T17:22:41.827Z,12.23
2018-04-06T17:25:11.168Z,12.30
2018-04-06T17:27:40.486Z,12.60
2018-04-06T17:30:09.856Z,11.90
2018-04-06T17:32:39.181Z,12.03
2018-04-06T17:35:08.572Z,11.60
2018-04-06T17:37:37.890Z,11.70
2018-04-06T17:40:07.214Z,11.87
2018-04-06T17:42:37.430Z,10.73
2018-04-06T17:45:07.549Z,12.53
2018-04-06T17:47:37.652Z,11.77
2018-04-06T17:50:06.959Z,11.40
2018-04-06T17:52:36.948Z,12.43
2018-04-06T17:55:06.481Z,11.90
2018-04-06T17:57:36.589Z,12.33
2018-04-06T18:00:05.917Z,12.60
2018-04-06T18:02:36.099Z,11.97
2018-04-06T18:05:05.455Z,13.00
2018-04-06T18:07:34.826Z,11.67
2018-04-06T18:10:04.225Z,11.70
2018-04-06T18:12:34.502Z,12.20
2018-04-06T18:15:03.942Z,10.97
2018-04-06T18:17:33.271Z,10.43
2018-04-06T18:20:03.408Z,11.70
2018-04-06T18:22:32.799Z,11.80
2018-04-06T18:25:02.884Z,12.10
2018-04-06T18:27:32.294Z,15.73
2018-04-06T18:30:01.618Z,36.33
2018-04-06T18:32:31.024Z,18.20
2018-04-06T18:35:01.578Z,12.13
2018-04-06T18:37:30.918Z,12.10
2018-04-06T18:40:00.264Z,13.37
2018-04-06T18:42:29.666Z,12.23
2018-04-06T18:44:59.001Z,12.87
2018-04-06T18:47:28.354Z,12.50
2018-04-06T18:49:58.514Z,11.90
2018-04-06T18:52:27.894Z,12.90
2018-04-06T18:54:57.247Z,12.57
2018-04-06T18:57:26.870Z,13.03
2018-04-06T18:59:56.196Z,12.60
2018-04-06T19:02:26.539Z,12.73
2018-04-06T19:04:55.882Z,11.90
2018-04-06T19:07:25.243Z,14.10
2018-04-06T19:09:54.561Z,11.63
2018-04-06T19:12:23.928Z,12.80
2018-04-06T19:14:53.269Z,13.33
2018-04-06T19:17:22.621Z,13.10
2018-04-06T19:19:52.765Z,12.30
2018-04-06T19:22:22.066Z,13.73
2018-04-06T19:24:51.546Z,12.50
2018-04-06T19:27:20.960Z,14.00
2018-04-06T19:29:50.345Z,13.70
2018-04-06T19:32:20.449Z,14.20
2018-04-06T19:34:49.789Z,12.63
2018-04-06T19:37:19.113Z,13.03
2018-04-06T19:39:48.482Z,12.10
2018-04-06T19:42:17.855Z,12.37
2018-04-06T19:44:47.198Z,13.10
2018-04-06T19:47:16.710Z,14.20
2018-04-06T19:49:46.088Z,13.43
2018-04-06T19:52:15.433Z,13.13
2018-04-06T19:54:45.527Z,14.43
2018-04-06T19:57:15.531Z,12.60
2018-04-06T19:59:44.914Z,11.83
2018-04-06T20:02:15.006Z,13.97
2018-04-06T20:04:44.390Z,12.90
2018-04-06T20:07:13.934Z,13.20
2018-04-06T20:09:44.023Z,13.50
2018-04-06T20:12:13.353Z,12.30
2018-04-06T20:14:43.450Z,13.47
2018-04-06T20:17:12.788Z,13.10
2018-04-06T20:19:42.934Z,13.17
2018-04-06T20:22:12.286Z,12.60
2018-04-06T20:24:41.602Z,12.93
2018-04-06T20:27:11.991Z,11.93
2018-04-06T20:29:41.304Z,12.50
2018-04-06T20:32:10.606Z,12.03
2018-04-06T20:34:39.941Z,11.30
2018-04-06T20:37:09.273Z,12.70
2018-04-06T20:39:38.584Z,12.37
2018-04-06T20:42:07.956Z,15.60
2018-04-06T20:44:37.251Z,14.80
2018-04-06T20:47:06.556Z,14.40
2018-04-06T20:49:35.967Z,15.20
2018-04-06T20:52:05.281Z,16.67
2018-04-06T20:54:34.591Z,18.70
2018-04-06T20:57:03.989Z,18.20
2018-04-06T20:59:33.260Z,16.20
2018-04-06T21:02:02.569Z,16.17
2018-04-06T21:04:31.887Z,16.47
2018-04-06T21:07:01.217Z,16.00
2018-04-06T21:09:30.533Z,17.23
2018-04-06T21:12:00.622Z,15.50
2018-04-06T21:14:29.956Z,16.03
2018-04-06T21:16:59.958Z,15.00
2018-04-06T21:19:29.051Z,14.00
2018-04-06T21:21:58.123Z,15.07
2018-04-06T21:24:27.215Z,15.03
2018-04-06T21:26:56.342Z,14.23
2018-04-06T21:29:26.198Z,13.97
2018-04-06T21:31:55.246Z,15.17
2018-04-06T21:34:24.305Z,13.67
2018-04-06T21:36:53.347Z,14.80
2018-04-06T21:39:22.429Z,14.20
2018-04-06T21:41:51.488Z,15.40
2018-04-06T21:44:20.526Z,13.30
2018-04-06T21:46:49.621Z,13.70
2018-04-06T21:49:18.688Z,14.30
2018-04-06T21:51:47.732Z,13.63
2018-04-06T21:54:16.798Z,12.30
2018-04-06T21:56:45.833Z,13.37
2018-04-06T21:59:14.918Z,12.23
2018-04-06T22:01:43.981Z,13.00
2018-04-06T22:04:13.019Z,13.87
2018-04-06T22:06:42.099Z,12.17
2018-04-06T22:09:11.170Z,12.23
2018-04-06T22:11:40.994Z,11.33
2018-04-06T22:14:10.049Z,11.93
2018-04-06T22:16:39.098Z,12.50
2018-04-06T22:19:08.165Z,11.70
2018-04-06T22:21:37.267Z,13.40
2018-04-06T22:24:06.336Z,13.20
2018-04-06T22:26:36.174Z,13.00
2018-04-06T22:29:05.227Z,14.00
2018-04-06T22:31:34.262Z,13.67
2018-04-06T22:34:03.323Z,13.10
2018-04-06T22:36:32.382Z,12.97
2018-04-06T22:39:01.451Z,13.30
2018-04-06T22:41:30.482Z,12.73
2018-04-06T22:43:59.568Z,12.70
2018-04-06T22:46:29.355Z,12.90
2018-04-06T22:48:58.424Z,13.07
2018-04-06T22:51:28.230Z,13.63
2018-04-06T22:53:58.054Z,13.70
2018-04-06T22:56:27.095Z,13.97
2018-04-06T22:58:56.165Z,13.50
2018-04-06T23:01:25.210Z,13.30
2018-04-06T23:03:54.270Z,13.03
2018-04-06T23:06:23.331Z,12.80
2018-04-06T23:08:52.362Z,13.03
2018-04-06T23:11:21.435Z,12.33
2018-04-06T23:13:50.486Z,12.87
2018-04-06T23:16:20.306Z,12.17
2018-04-06T23:18:50.106Z,13.10
2018-04-06T23:21:19.933Z,12.73
2018-04-06T23:23:49.767Z,14.17
2018-04-06T23:26:18.805Z,14.87
2018-04-06T23:28:47.862Z,12.87
2018-04-06T23:31:16.930Z,15.07
2018-04-06T23:33:46.754Z,15.07
2018-04-06T23:36:15.819Z,14.50
2018-04-06T23:38:44.848Z,13.40
2018-04-06T23:41:13.920Z,15.70
2018-04-06T23:43:42.978Z,14.50
2018-04-06T23:46:12.047Z,14.73
2018-04-06T23:48:41.089Z,15.80
2018-04-06T23:51:11.670Z,16.67
2018-04-06T23:53:40.763Z,16.60
2018-04-06T23:56:09.801Z,14.33
2018-04-06T23:58:38.927Z,14.50
